createdAt,value
2023-07-07T00:04:48.669Z,0.00
2023-07-07T00:14:49.266Z,0.00
2023-07-07T00:24:49.861Z,0.00
2023-07-07T00:34:50.398Z,0.00
2023-07-07T00:44:51.111Z,0.00
2023-07-07T00:54:51.669Z,0.00
2023-07-07T01:04:52.290Z,0.00
2023-07-07T01:14:53.011Z,0.00
2023-07-07T01:24:53.613Z,0.00
2023-07-07T01:34:54.125Z,0.00
2023-07-07T01:44:54.690Z,0.00
2023-07-07T01:54:55.219Z,0.00
2023-07-07T02:04:55.914Z,0.00
2023-07-07T02:14:56.492Z,0.00
2023-07-07T02:24:56.999Z,8.00
2023-07-07T02:34:57.505Z,3.00
2023-07-07T02:44:58.001Z,6.00
2023-07-07T02:54:58.486Z,15.00
2023-07-07T03:04:59.012Z,46.00
2023-07-07T03:14:59.490Z,124.00
2023-07-07T03:25:00.072Z,215.00
2023-07-07T03:35:00.537Z,324.00
2023-07-07T03:45:01.054Z,459.00
2023-07-07T03:55:01.548Z,515.00
2023-07-07T04:05:02.312Z,629.00
2023-07-07T04:15:02.520Z,763.00
2023-07-07T04:25:10.061Z,792.00
2023-07-07T04:35:03.505Z,868.00
2023-07-07T04:45:04.030Z,563.00
2023-07-07T04:55:04.504Z,491.00
2023-07-07T05:05:05.022Z,2157.00
2023-07-07T05:15:05.652Z,2448.00
2023-07-07T05:25:06.151Z,2660.00
2023-07-07T05:35:06.642Z,2750.00
2023-07-07T05:45:07.187Z,2751.00
2023-07-07T05:55:07.643Z,2732.00
2023-07-07T06:05:08.169Z,2526.00
2023-07-07T06:15:08.648Z,2718.00
2023-07-07T06:25:09.175Z,1562.00
2023-07-07T06:35:09.657Z,1466.00
2023-07-07T06:45:10.175Z,1578.00
2023-07-07T06:55:10.660Z,1875.00
2023-07-07T07:05:11.176Z,1432.00
2023-07-07T07:15:11.647Z,1265.00
2023-07-07T07:25:12.217Z,1339.00
2023-07-07T07:35:12.689Z,1422.00
2023-07-07T07:45:13.188Z,1554.00
2023-07-07T07:55:13.664Z,1681.00
2023-07-07T08:16:02.705Z,2230.00
2023-07-07T08:36:04.094Z,2298.00
2023-07-07T08:46:04.631Z,2495.00
2023-07-07T08:56:05.120Z,2680.00
2023-07-07T09:06:05.598Z,2796.00
2023-07-07T09:16:06.141Z,3059.00
2023-07-07T09:26:06.602Z,3185.00
2023-07-07T09:36:07.137Z,3220.00
2023-07-07T09:46:07.638Z,3859.00
2023-07-07T09:56:08.159Z,3739.00
2023-07-07T10:06:08.656Z,3866.00
2023-07-07T10:26:57.834Z,4220.00
2023-07-07T10:36:58.300Z,4118.00
2023-07-07T10:46:58.813Z,4207.00
2023-07-07T10:56:59.278Z,4427.00
2023-07-07T11:06:59.809Z,4411.00
2023-07-07T11:17:00.318Z,4610.00
2023-07-07T11:27:00.804Z,4550.00
2023-07-07T11:37:01.277Z,4716.00
2023-07-07T11:47:01.845Z,4742.00
2023-07-07T11:57:02.305Z,4541.00
2023-07-07T12:07:02.884Z,4793.00
2023-07-07T12:17:03.417Z,4682.00
2023-07-07T12:27:03.980Z,4654.00
2023-07-07T12:37:04.451Z,4595.00
2023-07-07T12:47:04.977Z,4647.00
2023-07-07T12:57:05.448Z,5035.00
2023-07-07T13:07:06.064Z,2910.00
2023-07-07T13:17:06.558Z,5133.00
2023-07-07T13:27:07.078Z,3177.00
2023-07-07T13:37:07.549Z,4644.00
2023-07-07T13:47:08.188Z,4133.00
2023-07-07T13:57:08.688Z,4139.00
2023-07-07T14:17:57.768Z,3565.00
2023-07-07T14:27:58.238Z,3799.00
2023-07-07T14:37:58.732Z,3349.00
2023-07-07T14:47:59.228Z,3288.00
2023-07-07T14:57:59.717Z,3198.00
2023-07-07T15:08:00.204Z,3086.00
2023-07-07T15:18:00.862Z,2766.00
2023-07-07T15:28:01.319Z,2623.00
2023-07-07T15:38:01.843Z,2442.00
2023-07-07T15:48:02.401Z,2272.00
2023-07-07T15:58:05.363Z,2055.00
2023-07-07T16:08:03.709Z,1915.00
2023-07-07T16:18:04.275Z,1702.00
2023-07-07T16:28:04.723Z,1616.00
2023-07-07T16:38:05.269Z,1476.00
2023-07-07T16:48:05.848Z,1342.00
2023-07-07T16:58:06.327Z,1290.00
2023-07-07T17:08:06.856Z,1229.00
2023-07-07T17:18:07.487Z,1195.00
2023-07-07T17:28:15.953Z,1084.00
2023-07-07T17:38:10.263Z,1081.00
2023-07-07T17:48:09.063Z,988.00
2023-07-07T17:58:09.580Z,1021.00
2023-07-07T18:08:10.030Z,1080.00
2023-07-07T18:18:25.167Z,1018.00
2023-07-07T18:28:12.372Z,697.00
2023-07-07T18:38:11.892Z,575.00
2023-07-07T18:48:12.392Z,465.00
2023-07-07T18:58:12.886Z,368.00
2023-07-07T19:08:13.369Z,280.00
2023-07-07T19:18:13.886Z,196.00
2023-07-07T19:28:14.363Z,124.00
2023-07-07T19:38:14.873Z,73.00
2023-07-07T19:48:15.345Z,35.00
2023-07-07T19:58:15.863Z,14.00
2023-07-07T20:08:16.346Z,4.00
2023-07-07T20:18:16.833Z,1.00
2023-07-07T20:28:17.401Z,0.00
2023-07-07T20:38:17.915Z,0.00
2023-07-07T20:48:18.431Z,0.00
2023-07-07T20:58:18.987Z,0.00
2023-07-07T21:08:19.527Z,0.00
2023-07-07T21:18:20.488Z,0.00
2023-07-07T21:28:20.540Z,0.00
2023-07-07T21:38:21.118Z,0.00
2023-07-07T21:48:21.634Z,0.00
2023-07-07T21:58:22.302Z,0.00
2023-07-07T22:08:22.784Z,0.00
2023-07-07T22:18:23.357Z,0.00
2023-07-07T22:28:23.881Z,0.00
2023-07-07T22:38:24.440Z,0.00
2023-07-07T22:48:24.963Z,0.00
2023-07-07T22:58:25.513Z,0.00
2023-07-07T23:08:26.056Z,0.00
2023-07-07T23:18:26.606Z,0.00
2023-07-07T23:28:34.982Z,0.00
2023-07-07T23:38:28.028Z,0.00
2023-07-07T23:48:28.612Z,0.00
2023-07-07T23:58:29.147Z,0.00
